Time;durP1;ratioP1;P1;durP2;ratioP2;P2;SDS_P1;SDS_P2;PMS_P1;PMS_P2;Temp;Humidity;BMP_temperature;BMP_pressure;BME280_temperature;BME280_humidity;BME280_pressure;Samples;Min_cycle;Max_cycle;Signal;HPM_P1;HPM_P2
2022/03/06 00:02:00;;;;;;;17.98;8.25;;;51.30;1920.00;;;;;;5114874;28;20049;-58
2022/03/06 00:04:25;;;;;;;22.23;9.43;;;51.30;1920.00;;;;;;5147620;27;20036;-58
2022/03/06 00:06:51;;;;;;;15.45;8.00;;;51.30;1920.00;;;;;;5147955;27;20034;-58
2022/03/06 00:09:17;;;;;;;21.92;11.38;;;51.30;1920.00;;;;;;5114748;28;20389;-58
2022/03/06 00:11:44;;;;;;;23.30;11.60;;;51.30;1920.00;;;;;;5114599;28;20016;-58
2022/03/06 00:14:10;;;;;;;17.33;9.00;;;51.30;1920.00;;;;;;5112771;28;20036;-53
2022/03/06 00:16:35;;;;;;;27.10;12.88;;;51.40;1920.00;;;;;;5115165;28;20049;-57
2022/03/06 00:19:01;;;;;;;32.08;15.98;;;51.30;1920.00;;;;;;5114577;28;20026;-57
2022/03/06 00:21:27;;;;;;;25.70;13.23;;;51.40;1920.00;;;;;;5114398;28;20036;-58
2022/03/06 00:23:53;;;;;;;19.60;9.82;;;51.40;1920.00;;;;;;5114608;28;20030;-59
2022/03/06 00:26:19;;;;;;;15.25;7.63;;;51.40;1920.00;;;;;;5114662;28;20023;-59
2022/03/06 00:28:45;;;;;;;17.38;8.40;;;51.40;1920.00;;;;;;5114447;28;20031;-57
2022/03/06 00:31:13;;;;;;;15.00;7.97;;;51.30;1920.00;;;;;;5114474;28;20046;-58
2022/03/06 00:33:38;;;;;;;13.25;7.85;;;51.30;1920.00;;;;;;5114287;27;20066;-57
2022/03/06 00:36:04;;;;;;;11.63;6.80;;;51.30;1920.00;;;;;;5114643;28;20500;-55
2022/03/06 00:38:30;;;;;;;14.80;8.45;;;51.30;1920.00;;;;;;5114718;28;20068;-54
2022/03/06 00:40:56;;;;;;;12.15;6.45;;;51.30;1920.00;;;;;;5113683;28;20130;-54
2022/03/06 00:43:22;;;;;;;10.38;5.78;;;51.20;1945.60;;;;;;5114188;28;20404;-55
2022/03/06 00:45:47;;;;;;;10.07;5.00;;;51.20;1945.60;;;;;;5118184;27;20099;-54
2022/03/06 00:48:13;;;;;;;11.98;5.75;;;51.20;1945.60;;;;;;5134324;27;20039;-53
2022/03/06 00:50:39;;;;;;;11.25;5.82;;;51.20;1945.60;;;;;;5130263;27;20023;-54
2022/03/06 00:53:06;;;;;;;13.20;5.95;;;51.20;1945.60;;;;;;5133283;27;20031;-54
2022/03/06 00:55:32;;;;;;;15.45;7.00;;;51.20;1945.60;;;;;;5132859;27;20023;-53
2022/03/06 00:58:05;;;;;;;12.63;6.20;;;51.20;1971.20;;;;;;5133184;27;20068;-55
2022/03/06 01:00:35;;;;;;;11.90;6.03;;;51.20;1945.60;;;;;;5132958;27;20178;-54
2022/03/06 01:03:05;;;;;;;10.35;5.45;;;51.20;1945.60;;;;;;5131025;28;20384;-54
2022/03/06 01:05:32;;;;;;;15.48;7.55;;;51.30;1945.60;;;;;;5129593;27;20391;-54
2022/03/06 01:07:58;;;;;;;16.75;6.93;;;51.30;1945.60;;;;;;5132065;27;20020;-54
2022/03/06 01:10:24;;;;;;;16.42;7.13;;;51.20;1945.60;;;;;;5129185;27;20027;-56
2022/03/06 01:12:50;;;;;;;16.40;7.30;;;51.30;1945.60;;;;;;5132031;28;20019;-53
2022/03/06 01:15:15;;;;;;;10.77;5.68;;;51.20;1945.60;;;;;;5132339;27;20492;-52
2022/03/06 01:17:41;;;;;;;11.02;5.45;;;51.20;1945.60;;;;;;5132778;28;20042;-54
2022/03/06 01:20:08;;;;;;;8.20;4.70;;;51.20;1945.60;;;;;;5132118;27;20031;-52
2022/03/06 01:22:34;;;;;;;10.73;5.07;;;26.50;1920.00;;;;;;5128885;27;20385;-52
2022/03/06 01:24:59;;;;;;;10.13;4.97;;;26.50;1920.00;;;;;;5132070;28;20114;-54
2022/03/06 01:27:25;;;;;;;9.93;5.32;;;26.50;1945.60;;;;;;5132757;27;20064;-54
2022/03/06 01:29:51;;;;;;;10.10;5.65;;;26.50;1945.60;;;;;;5132742;27;20106;-54
2022/03/06 01:32:17;;;;;;;9.98;5.50;;;26.40;1945.60;;;;;;5135527;27;20043;-53
2022/03/06 01:34:42;;;;;;;10.15;5.15;;;26.30;1945.60;;;;;;5136667;27;20045;-53
2022/03/06 01:37:08;;;;;;;11.98;5.50;;;26.30;1945.60;;;;;;5135034;27;20050;-56
2022/03/06 01:39:34;;;;;;;9.18;5.10;;;26.20;1971.20;;;;;;5135868;27;20070;-54
2022/03/06 01:41:59;;;;;;;9.13;4.80;;;26.10;1971.20;;;;;;5136171;27;20055;-54
2022/03/06 01:44:25;;;;;;;9.73;5.43;;;26.10;1971.20;;;;;;5137383;27;20105;-54
2022/03/06 01:46:51;;;;;;;10.68;5.15;;;26.00;1996.80;;;;;;5137303;27;20426;-55
2022/03/06 01:49:17;;;;;;;9.90;5.00;;;26.00;1996.80;;;;;;5137212;27;20046;-54
2022/03/06 01:51:43;;;;;;;10.48;5.70;;;25.90;1996.80;;;;;;5136397;27;20393;-54
2022/03/06 01:54:09;;;;;;;10.15;5.68;;;25.90;1996.80;;;;;;5133931;27;20023;-53
2022/03/06 01:56:36;;;;;;;9.85;5.30;;;25.90;1996.80;;;;;;5135878;27;20041;-56
2022/03/06 01:59:03;;;;;;;9.52;5.28;;;25.80;1996.80;;;;;;5134727;27;20022;-55
2022/03/06 02:01:30;;;;;;;10.65;5.28;;;25.70;2022.40;;;;;;5136671;27;20100;-53
2022/03/06 02:03:56;;;;;;;11.32;5.32;;;25.60;2022.40;;;;;;5136777;27;20106;-53
2022/03/06 02:06:23;;;;;;;9.38;4.88;;;25.60;2022.40;;;;;;5137110;27;20019;-55
2022/03/06 02:08:49;;;;;;;12.90;5.40;;;25.60;2022.40;;;;;;5136355;27;20023;-55
2022/03/06 02:11:16;;;;;;;9.98;5.15;;;25.60;2022.40;;;;;;5132305;27;20034;-53
2022/03/06 02:13:45;;;;;;;9.48;5.30;;;25.60;2048.00;;;;;;5135291;27;20027;-54
2022/03/06 02:16:11;;;;;;;9.55;4.82;;;25.60;2022.40;;;;;;5133625;27;20019;-54
2022/03/06 02:18:37;;;;;;;10.65;5.18;;;25.60;2022.40;;;;;;5135376;27;20354;-53
2022/03/06 02:21:10;;;;;;;10.65;6.00;;;25.60;2048.00;;;;;;5135740;27;20088;-53
2022/03/06 02:23:37;;;;;;;9.60;5.50;;;25.60;2022.40;;;;;;5133245;27;20047;-54
2022/03/06 02:26:04;;;;;;;10.95;5.78;;;0.90;2048.00;;;;;;5134454;27;20056;-53
2022/03/06 02:28:30;;;;;;;12.35;5.78;;;25.60;2048.00;;;;;;5135096;27;20433;-53
2022/03/06 02:30:56;;;;;;;11.48;5.20;;;25.60;2048.00;;;;;;5133322;27;20536;-54
2022/03/06 02:33:23;;;;;;;12.57;5.80;;;25.60;2048.00;;;;;;5136244;27;20144;-56
2022/03/06 02:35:49;;;;;;;12.52;5.70;;;25.60;2048.00;;;;;;5136275;27;20019;-54
2022/03/06 02:38:15;;;;;;;11.23;5.53;;;25.60;2048.00;;;;;;5136644;27;20026;-55
2022/03/06 02:40:44;;;;;;;10.35;5.97;;;25.60;2048.00;;;;;;5136544;27;20028;-53
2022/03/06 02:43:12;;;;;;;11.30;6.22;;;25.70;2048.00;;;;;;5132305;27;20055;-53
2022/03/06 02:45:39;;;;;;;10.93;5.70;;;25.80;2048.00;;;;;;5136503;27;20023;-53
2022/03/06 02:48:06;;;;;;;9.90;5.43;;;25.70;2048.00;;;;;;5136377;27;20034;-55
2022/03/06 02:50:34;;;;;;;11.80;5.95;;;25.70;2048.00;;;;;;5136349;27;20551;-54
2022/03/06 02:53:02;;;;;;;11.85;5.78;;;25.80;2022.40;;;;;;5136275;27;20035;-54
2022/03/06 02:55:28;;;;;;;11.50;5.82;;;25.90;2022.40;;;;;;5136165;27;20050;-53
2022/03/06 02:57:54;;;;;;;11.38;5.80;;;25.80;2022.40;;;;;;5134333;27;20028;-56
2022/03/06 03:00:22;;;;;;;12.63;5.68;;;25.80;2048.00;;;;;;5135745;27;20039;-54
2022/03/06 03:02:49;;;;;;;11.07;5.78;;;25.80;2048.00;;;;;;5136135;27;20028;-53
2022/03/06 03:05:15;;;;;;;11.20;5.82;;;25.80;2022.40;;;;;;5136081;27;20027;-56
2022/03/06 03:07:43;;;;;;;9.82;5.55;;;25.80;2048.00;;;;;;5135919;27;20023;-54
2022/03/06 03:10:12;;;;;;;13.30;5.68;;;25.80;2048.00;;;;;;5135980;27;20060;-54
2022/03/06 03:12:38;;;;;;;9.75;5.20;;;25.80;2022.40;;;;;;5135676;27;20088;-54
2022/03/06 03:15:06;;;;;;;12.57;5.72;;;25.70;2048.00;;;;;;5133084;27;20655;-53
2022/03/06 03:17:32;;;;;;;10.30;5.47;;;25.70;2048.00;;;;;;5135974;27;20015;-56
2022/03/06 03:19:57;;;;;;;11.30;5.90;;;25.70;2048.00;;;;;;5135942;27;20417;-54
2022/03/06 03:22:23;;;;;;;11.27;5.95;;;25.70;2048.00;;;;;;5135787;27;20023;-53
2022/03/06 03:24:49;;;;;;;11.75;5.72;;;25.70;2048.00;;;;;;5135687;27;20019;-54
2022/03/06 03:27:15;;;;;;;12.65;5.97;;;25.80;2048.00;;;;;;5136021;27;20031;-54
2022/03/06 03:29:40;;;;;;;14.45;6.28;;;25.70;2048.00;;;;;;5134902;27;20377;-53
2022/03/06 03:32:07;;;;;;;10.43;6.03;;;25.70;2073.60;;;;;;5134276;27;20142;-54
2022/03/06 03:34:32;;;;;;;9.77;5.25;;;25.70;2048.00;;;;;;5132828;27;20039;-54
2022/03/06 03:36:59;;;;;;;11.32;6.43;;;25.70;2073.60;;;;;;5135631;27;20463;-55
2022/03/06 03:39:24;;;;;;;10.90;5.80;;;25.70;2048.00;;;;;;5135506;27;20035;-56
2022/03/06 03:41:50;;;;;;;11.30;6.05;;;25.80;2073.60;;;;;;5134832;27;20027;-57
2022/03/06 03:44:16;;;;;;;10.43;5.75;;;25.80;2048.00;;;;;;5134982;27;20019;-55
2022/03/06 03:46:41;;;;;;;11.50;6.13;;;25.80;2048.00;;;;;;5133869;27;20027;-56
2022/03/06 03:49:07;;;;;;;10.95;5.60;;;25.80;2073.60;;;;;;5135077;27;20056;-54
2022/03/06 03:51:33;;;;;;;11.50;6.07;;;25.90;2048.00;;;;;;5132381;27;20015;-54
2022/03/06 03:53:59;;;;;;;12.98;6.10;;;25.90;2048.00;;;;;;5134463;27;20023;-53
2022/03/06 03:56:25;;;;;;;13.57;6.28;;;25.80;2048.00;;;;;;5135466;27;20110;-53
2022/03/06 03:58:51;;;;;;;12.25;6.90;;;25.80;2073.60;;;;;;5134924;27;20123;-53
2022/03/06 04:01:18;;;;;;;10.95;6.00;;;25.90;2073.60;;;;;;5133249;27;20046;-54
2022/03/06 04:03:44;;;;;;;12.80;6.70;;;25.90;2073.60;;;;;;5133874;27;20019;-54
2022/03/06 04:06:10;;;;;;;9.32;5.38;;;25.80;2073.60;;;;;;5135203;27;20109;-53
2022/03/06 04:08:36;;;;;;;10.15;5.60;;;25.90;2073.60;;;;;;5135191;27;20353;-53
2022/03/06 04:11:03;;;;;;;11.07;5.47;;;25.90;2099.20;;;;;;5135016;27;20072;-54
2022/03/06 04:13:29;;;;;;;11.00;5.55;;;25.90;2099.20;;;;;;5134322;27;20023;-54
2022/03/06 04:15:55;;;;;;;10.45;5.75;;;25.90;2099.20;;;;;;5134866;27;20110;-53
2022/03/06 04:18:21;;;;;;;9.88;5.43;;;25.90;2073.60;;;;;;5134839;27;20063;-53
2022/03/06 04:20:47;;;;;;;10.88;5.50;;;25.90;2073.60;;;;;;5132402;27;20034;-53
2022/03/06 04:23:13;;;;;;;10.30;5.60;;;25.90;2073.60;;;;;;5131843;27;20019;-55
2022/03/06 04:25:40;;;;;;;9.82;5.47;;;25.90;2099.20;;;;;;5134708;27;20026;-53
2022/03/06 04:28:07;;;;;;;9.52;5.82;;;25.90;2099.20;;;;;;5134570;27;20019;-54
2022/03/06 04:30:33;;;;;;;13.25;8.38;;;25.80;2099.20;;;;;;5134558;27;20024;-55
2022/03/06 04:32:58;;;;;;;12.27;7.47;;;25.90;2099.20;;;;;;5134485;27;20376;-54
2022/03/06 04:35:24;;;;;;;11.35;6.38;;;25.80;2099.20;;;;;;5134798;27;20084;-56
2022/03/06 04:37:50;;;;;;;9.95;6.20;;;25.70;2099.20;;;;;;5130640;27;20050;-54
2022/03/06 04:40:16;;;;;;;11.98;6.22;;;25.70;2099.20;;;;;;5134152;27;20034;-53
2022/03/06 04:42:43;;;;;;;11.27;6.05;;;25.80;2099.20;;;;;;5134067;27;20115;-55
2022/03/06 04:45:09;;;;;;;11.32;6.30;;;25.70;2099.20;;;;;;5133662;27;20023;-53
2022/03/06 04:47:35;;;;;;;12.70;6.95;;;25.70;2099.20;;;;;;5134450;27;20098;-53
2022/03/06 04:50:01;;;;;;;11.82;6.82;;;25.70;2124.80;;;;;;5133902;27;20088;-54
2022/03/06 04:52:27;;;;;;;11.35;6.32;;;25.70;2124.80;;;;;;5134136;27;20027;-53
2022/03/06 04:54:53;;;;;;;9.75;6.35;;;25.60;2124.80;;;;;;5130614;27;20022;-53
2022/03/06 04:57:18;;;;;;;11.40;6.35;;;25.60;2124.80;;;;;;5133980;27;20029;-53
2022/03/06 04:59:44;;;;;;;12.68;6.28;;;25.70;2124.80;;;;;;5133736;27;20057;-53
2022/03/06 05:02:10;;;;;;;12.38;6.53;;;25.70;2124.80;;;;;;5134236;27;20027;-53
2022/03/06 05:04:35;;;;;;;11.43;6.32;;;25.60;2124.80;;;;;;5134240;27;20015;-54
2022/03/06 05:07:01;;;;;;;12.38;6.78;;;25.60;2124.80;;;;;;5133745;27;20096;-54
2022/03/06 05:09:27;;;;;;;12.95;6.10;;;25.60;2124.80;;;;;;5133897;27;20468;-54
2022/03/06 05:11:53;;;;;;;11.85;6.90;;;25.60;2150.40;;;;;;5130548;27;20027;-54
2022/03/06 05:14:19;;;;;;;11.50;6.57;;;25.60;2150.40;;;;;;5133868;27;20027;-56
2022/03/06 05:16:44;;;;;;;34.95;14.07;;;25.70;2124.80;;;;;;5133830;27;20380;-55
2022/03/06 05:19:10;;;;;;;33.42;15.00;;;25.70;2124.80;;;;;;5133395;28;20381;-55
2022/03/06 05:21:36;;;;;;;28.63;12.70;;;25.70;2124.80;;;;;;5133485;27;20038;-57
2022/03/06 05:24:03;;;;;;;25.80;12.10;;;25.70;2150.40;;;;;;5133973;27;20019;-54
2022/03/06 05:26:29;;;;;;;36.97;15.02;;;25.70;2150.40;;;;;;5131365;27;20039;-54
2022/03/06 05:28:54;;;;;;;26.65;12.65;;;25.70;2124.80;;;;;;5133820;28;20115;-56
2022/03/06 05:31:20;;;;;;;31.63;15.18;;;25.70;2150.40;;;;;;5133621;27;20362;-54
2022/03/06 05:33:46;;;;;;;37.63;18.30;;;25.70;2150.40;;;;;;5133671;28;20023;-57
2022/03/06 05:36:12;;;;;;;47.13;22.55;;;25.70;2150.40;;;;;;5131789;28;20028;-56
2022/03/06 05:38:37;;;;;;;40.75;20.73;;;25.80;2124.80;;;;;;5133014;27;20481;-54
2022/03/06 05:41:03;;;;;;;37.08;18.48;;;25.80;2150.40;;;;;;5132786;28;20036;-55
2022/03/06 05:43:29;;;;;;;29.73;14.77;;;25.80;2150.40;;;;;;5115848;27;20058;-54
2022/03/06 05:45:55;;;;;;;26.65;12.90;;;25.70;2150.40;;;;;;5128813;28;20063;-54
2022/03/06 05:48:21;;;;;;;29.55;12.77;;;25.80;2150.40;;;;;;5134115;27;20064;-54
2022/03/06 05:50:47;;;;;;;26.80;11.55;;;25.80;2150.40;;;;;;5133336;27;20031;-54
2022/03/06 05:53:14;;;;;;;25.95;11.25;;;25.80;2150.40;;;;;;5133847;27;20404;-54
2022/03/06 05:55:39;;;;;;;32.67;12.90;;;25.90;2150.40;;;;;;5134180;27;20122;-54
2022/03/06 05:58:05;;;;;;;21.08;8.88;;;26.00;2150.40;;;;;;5129626;27;20039;-53
2022/03/06 06:00:31;;;;;;;28.38;11.82;;;26.00;2150.40;;;;;;5133863;27;20031;-54
2022/03/06 06:02:57;;;;;;;36.13;14.02;;;26.00;2150.40;;;;;;5133564;27;20050;-54
2022/03/06 06:05:24;;;;;;;36.28;14.80;;;26.10;2150.40;;;;;;5134022;27;20031;-55
2022/03/06 06:07:50;;;;;;;35.50;15.13;;;26.20;2124.80;;;;;;5134236;28;20626;-55
2022/03/06 06:10:16;;;;;;;39.47;15.18;;;26.30;2124.80;;;;;;5133913;27;20034;-55
2022/03/06 06:12:42;;;;;;;37.42;14.60;;;26.50;2099.20;;;;;;5131862;27;20034;-53
2022/03/06 06:15:09;;;;;;;35.85;15.60;;;26.50;2099.20;;;;;;5113568;28;20032;-55
2022/03/06 06:17:35;;;;;;;28.48;12.88;;;51.30;2099.20;;;;;;5115682;28;20499;-54
2022/03/06 06:20:04;;;;;;;23.15;11.27;;;51.40;2099.20;;;;;;5116887;28;20020;-54
2022/03/06 06:22:31;;;;;;;28.42;13.80;;;51.50;2073.60;;;;;;5117096;28;20055;-54
2022/03/06 06:24:57;;;;;;;19.52;10.43;;;51.50;2073.60;;;;;;5117253;28;20028;-54
2022/03/06 06:27:22;;;;;;;25.40;13.10;;;51.60;2073.60;;;;;;5116799;28;20476;-54
2022/03/06 06:29:48;;;;;;;43.40;21.00;;;51.70;2048.00;;;;;;5116570;27;20020;-53
2022/03/06 06:32:14;;;;;;;45.78;19.38;;;51.70;2048.00;;;;;;5116912;28;20050;-54
2022/03/06 06:34:40;;;;;;;65.32;24.98;;;51.80;2048.00;;;;;;5115358;28;20020;-54
2022/03/06 06:37:06;;;;;;;28.23;13.27;;;51.80;2048.00;;;;;;5116787;28;20415;-54
2022/03/06 06:39:32;;;;;;;56.22;22.70;;;51.90;2022.40;;;;;;5116588;28;20023;-54
2022/03/06 06:41:59;;;;;;;73.82;29.25;;;51.90;2022.40;;;;;;5116461;28;20081;-54
2022/03/06 06:44:25;;;;;;;46.50;21.25;;;52.00;2022.40;;;;;;5117110;27;20102;-54
2022/03/06 06:46:51;;;;;;;23.38;11.10;;;52.10;1996.80;;;;;;5136390;27;20113;-56
2022/03/06 06:49:17;;;;;;;75.05;30.77;;;76.80;1971.20;;;;;;5137242;27;20015;-54
2022/03/06 06:51:42;;;;;;;32.08;15.48;;;76.90;1971.20;;;;;;5136867;27;20046;-54
2022/03/06 06:54:08;;;;;;;41.05;17.48;;;77.00;1945.60;;;;;;5136889;27;20046;-55
2022/03/06 06:56:34;;;;;;;37.70;17.23;;;77.00;1971.20;;;;;;5137247;27;20023;-54
2022/03/06 06:59:00;;;;;;;26.52;13.75;;;77.10;1945.60;;;;;;5136715;27;20083;-55
2022/03/06 07:01:26;;;;;;;34.40;17.13;;;77.10;1945.60;;;;;;5136670;27;20134;-54
2022/03/06 07:03:51;;;;;;;23.83;12.30;;;77.10;1945.60;;;;;;5135481;27;20034;-54
2022/03/06 07:06:17;;;;;;;19.60;10.77;;;77.10;1945.60;;;;;;5136891;27;20372;-55
2022/03/06 07:08:43;;;;;;;16.02;8.82;;;77.10;1945.60;;;;;;5136926;27;20023;-54
2022/03/06 07:11:09;;;;;;;15.98;8.35;;;77.10;1945.60;;;;;;5136571;27;20027;-55
2022/03/06 07:13:35;;;;;;;13.68;8.05;;;77.20;1945.60;;;;;;5136473;27;20114;-55
2022/03/06 07:16:01;;;;;;;23.88;12.23;;;77.20;1945.60;;;;;;5136320;27;20470;-54
2022/03/06 07:18:26;;;;;;;13.57;7.78;;;77.30;1945.60;;;;;;5136276;27;20031;-55
2022/03/06 07:20:53;;;;;;;21.95;10.68;;;77.40;1920.00;;;;;;5123603;27;20465;-56
2022/03/06 07:23:19;;;;;;;18.65;9.00;;;77.50;1894.40;;;;;;5115649;28;20442;-56
2022/03/06 07:25:45;;;;;;;15.57;8.95;;;77.60;1894.40;;;;;;5114335;28;20027;-53
2022/03/06 07:28:11;;;;;;;15.50;8.13;;;77.70;1894.40;;;;;;5115114;28;20449;-53
2022/03/06 07:30:36;;;;;;;22.20;11.10;;;102.40;1868.80;;;;;;5115650;28;20091;-56
2022/03/06 07:33:02;;;;;;;16.33;9.40;;;102.50;1868.80;;;;;;5115413;28;20420;-55
2022/03/06 07:35:29;;;;;;;16.30;9.82;;;102.50;1868.80;;;;;;5115852;28;20024;-55
2022/03/06 07:37:55;;;;;;;18.23;9.30;;;102.60;1843.20;;;;;;5126585;27;20065;-55
2022/03/06 07:40:22;;;;;;;18.40;11.40;;;102.70;1817.60;;;;;;5136187;27;20383;-54
2022/03/06 07:42:48;;;;;;;14.55;8.48;;;102.80;1817.60;;;;;;5135846;27;20122;-55
2022/03/06 07:45:15;;;;;;;15.95;8.82;;;102.70;1817.60;;;;;;5135897;27;20115;-55
2022/03/06 07:47:41;;;;;;;19.60;11.05;;;102.80;1817.60;;;;;;5135723;27;20151;-56
2022/03/06 07:50:09;;;;;;;14.80;8.45;;;102.80;1817.60;;;;;;5135691;27;20028;-55
2022/03/06 07:52:36;;;;;;;16.33;9.48;;;102.90;1817.60;;;;;;5135860;27;20114;-55
2022/03/06 07:55:04;;;;;;;17.88;10.00;;;102.90;1792.00;;;;;;5128796;27;20044;-54
2022/03/06 07:57:30;;;;;;;16.42;8.95;;;103.00;1792.00;;;;;;5115008;28;20039;-55
2022/03/06 07:59:56;;;;;;;15.27;8.57;;;103.10;1766.40;;;;;;5115109;28;20035;-55
2022/03/06 08:02:21;;;;;;;19.70;11.30;;;103.30;1766.40;;;;;;5114999;28;20110;-55
2022/03/06 08:04:47;;;;;;;14.52;8.95;;;128.00;1792.00;;;;;;5113626;28;20039;-55
2022/03/06 08:07:13;;;;;;;15.77;9.32;;;128.10;1766.40;;;;;;5115090;28;20492;-55
2022/03/06 08:09:39;;;;;;;17.10;9.95;;;128.10;1766.40;;;;;;5114245;27;20023;-54
2022/03/06 08:12:05;;;;;;;38.67;21.70;;;128.30;1766.40;;;;;;5114541;28;20036;-55
2022/03/06 08:14:31;;;;;;;20.67;12.07;;;128.30;1740.80;;;;;;5114761;28;20020;-55
2022/03/06 08:16:56;;;;;;;24.58;14.65;;;128.40;1740.80;;;;;;5115099;28;20035;-55
2022/03/06 08:19:23;;;;;;;37.67;20.35;;;128.50;1740.80;;;;;;5114875;28;20027;-55
2022/03/06 08:21:49;;;;;;;28.30;17.13;;;128.40;1740.80;;;;;;5114803;28;20043;-55
2022/03/06 08:24:15;;;;;;;20.77;11.55;;;128.60;1715.20;;;;;;5114760;28;20409;-55
2022/03/06 08:26:41;;;;;;;18.60;11.45;;;128.50;1740.80;;;;;;5114223;27;20469;-55
2022/03/06 08:29:07;;;;;;;21.17;12.48;;;128.70;1740.80;;;;;;5114371;28;20065;-55
2022/03/06 08:31:32;;;;;;;23.38;14.80;;;153.60;1715.20;;;;;;5114434;28;20027;-55
2022/03/06 08:33:58;;;;;;;23.65;13.95;;;153.70;1689.60;;;;;;5114407;28;20023;-55
2022/03/06 08:36:24;;;;;;;20.30;14.02;;;153.80;1689.60;;;;;;5114648;28;20107;-55
2022/03/06 08:38:50;;;;;;;18.67;10.77;;;154.10;1664.00;;;;;;5114218;28;20055;-55
2022/03/06 08:41:16;;;;;;;19.83;11.98;;;154.40;1638.40;;;;;;5113510;28;20032;-55
2022/03/06 08:43:42;;;;;;;19.88;12.52;;;154.50;1612.80;;;;;;5113783;27;20063;-56
2022/03/06 08:46:08;;;;;;;22.80;13.85;;;154.40;1612.80;;;;;;5114269;28;20039;-56
2022/03/06 08:48:36;;;;;;;21.80;13.52;;;154.40;1612.80;;;;;;5114390;28;20081;-55
2022/03/06 08:51:06;;;;;;;22.98;13.50;;;154.40;1638.40;;;;;;5114340;28;20031;-55
2022/03/06 08:53:32;;;;;;;23.95;14.45;;;154.30;1612.80;;;;;;5114208;28;20094;-55
2022/03/06 08:55:59;;;;;;;24.60;14.57;;;154.40;1612.80;;;;;;5114301;28;20031;-55
2022/03/06 08:58:24;;;;;;;48.65;26.50;;;154.40;1612.80;;;;;;5113993;27;20129;-54
2022/03/06 09:00:50;;;;;;;44.45;26.23;;;154.10;1664.00;;;;;;5113815;28;20057;-56
2022/03/06 09:03:16;;;;;;;37.47;21.23;;;154.10;1664.00;;;;;;5114159;28;20020;-56
2022/03/06 09:05:42;;;;;;;37.20;20.30;;;154.00;1638.40;;;;;;5113802;28;20120;-56
2022/03/06 09:08:11;;;;;;;27.95;16.23;;;154.10;1638.40;;;;;;5113972;28;20015;-55
2022/03/06 09:10:38;;;;;;;25.40;15.63;;;154.10;1638.40;;;;;;5113807;28;20020;-55
2022/03/06 09:13:05;;;;;;;26.30;14.65;;;154.20;1664.00;;;;;;5113820;28;20481;-55
2022/03/06 09:15:31;;;;;;;21.67;12.90;;;154.20;1638.40;;;;;;5113526;27;20114;-55
2022/03/06 09:17:57;;;;;;;33.63;17.92;;;154.20;1638.40;;;;;;5113887;28;20051;-55
2022/03/06 09:20:24;;;;;;;42.22;23.90;;;154.30;1638.40;;;;;;5113954;28;20110;-55
2022/03/06 09:22:50;;;;;;;22.58;13.95;;;154.30;1638.40;;;;;;5113916;28;20419;-54
2022/03/06 09:25:16;;;;;;;24.92;14.45;;;154.40;1638.40;;;;;;5114075;28;20036;-55
2022/03/06 09:27:42;;;;;;;23.42;14.50;;;154.40;1612.80;;;;;;5113854;28;20098;-56
2022/03/06 09:30:09;;;;;;;37.60;20.35;;;154.40;1612.80;;;;;;5113445;27;20046;-55
2022/03/06 09:32:35;;;;;;;186.98;65.80;;;154.40;1612.80;;;;;;5113809;28;20120;-56
2022/03/06 09:35:01;;;;;;;100.63;36.90;;;154.40;1638.40;;;;;;5113582;28;20016;-56
2022/03/06 09:37:27;;;;;;;129.40;42.75;;;154.50;1612.80;;;;;;5113865;28;20028;-55
2022/03/06 09:39:52;;;;;;;99.38;37.45;;;154.40;1612.80;;;;;;5114012;28;20106;-55
2022/03/06 09:42:19;;;;;;;109.25;40.13;;;154.40;1638.40;;;;;;5113610;28;20412;-56
2022/03/06 09:44:49;;;;;;;57.63;25.67;;;154.40;1638.40;;;;;;5113481;28;20407;-56
2022/03/06 09:47:16;;;;;;;83.85;35.35;;;154.40;1612.80;;;;;;5113217;27;20039;-54
2022/03/06 09:49:43;;;;;;;39.17;19.85;;;179.30;1612.80;;;;;;5133979;28;20016;-57
2022/03/06 09:52:10;;;;;;;35.83;18.70;;;179.20;1612.80;;;;;;5136382;27;20027;-57
2022/03/06 09:54:36;;;;;;;86.20;32.83;;;179.30;1612.80;;;;;;5138123;27;20046;-57
2022/03/06 09:57:03;;;;;;;103.13;36.45;;;179.30;1587.20;;;;;;5137832;27;20023;-55
2022/03/06 09:59:31;;;;;;;116.30;40.30;;;179.30;1587.20;;;;;;5136237;27;20058;-55
2022/03/06 10:02:04;;;;;;;27.67;16.33;;;179.30;1587.20;;;;;;5137764;27;20500;-55
2022/03/06 10:04:32;;;;;;;22.85;15.18;;;154.40;1638.40;;;;;;5138062;27;20031;-55
2022/03/06 10:07:12;;;;;;;23.63;15.02;;;154.40;1638.40;;;;;;5118559;27;20034;-55
2022/03/06 10:09:54;;;;;;;28.08;17.27;;;154.40;1638.40;;;;;;5117503;28;20024;-56
2022/03/06 10:12:22;;;;;;;28.42;16.45;;;154.40;1638.40;;;;;;5117273;28;20373;-55
2022/03/06 10:14:49;;;;;;;27.77;16.15;;;154.40;1638.40;;;;;;5116686;28;20028;-55
2022/03/06 10:17:18;;;;;;;27.20;16.27;;;154.30;1638.40;;;;;;5117203;28;20355;-56
2022/03/06 10:19:56;;;;;;;32.53;18.20;;;154.30;1664.00;;;;;;5117088;28;20027;-56
2022/03/06 10:22:36;;;;;;;39.63;21.13;;;154.40;1664.00;;;;;;5133006;27;20027;-56
2022/03/06 10:25:02;;;;;;;33.28;18.65;;;154.40;1664.00;;;;;;5137687;27;20159;-55
2022/03/06 10:27:47;;;;;;;30.02;17.23;;;154.40;1689.60;;;;;;5137274;27;20480;-55
2022/03/06 10:30:24;;;;;;;33.17;19.95;;;154.40;1689.60;;;;;;5137610;27;20049;-56
2022/03/06 10:32:51;;;;;;;29.15;18.08;;;154.50;1715.20;;;;;;5137652;27;20020;-55
2022/03/06 10:35:16;;;;;;;33.97;19.60;;;179.20;1689.60;;;;;;5137148;27;20027;-58
2022/03/06 10:37:42;;;;;;;32.30;20.35;;;179.40;1664.00;;;;;;5136925;27;20022;-57
2022/03/06 10:40:14;;;;;;;30.75;19.20;;;179.40;1689.60;;;;;;5135692;27;20500;-56
2022/03/06 10:42:43;;;;;;;29.17;17.85;;;179.40;1740.80;;;;;;5137006;27;20051;-57
2022/03/06 10:45:24;;;;;;;31.52;17.23;;;179.50;1740.80;;;;;;5137087;27;20079;-56
2022/03/06 10:47:49;;;;;;;53.72;26.05;;;179.60;1740.80;;;;;;5137369;27;20055;-55
2022/03/06 10:50:21;;;;;;;73.82;27.88;;;179.80;1715.20;;;;;;5137328;27;20043;-55
2022/03/06 10:52:47;;;;;;;159.70;46.20;;;180.00;1689.60;;;;;;5127390;27;20020;-55
2022/03/06 10:55:13;;;;;;;42.38;20.67;;;180.00;1715.20;;;;;;5129781;27;20384;-55
2022/03/06 10:57:40;;;;;;;30.42;18.10;;;180.10;1689.60;;;;;;5134114;27;20031;-55
2022/03/06 11:00:06;;;;;;;30.92;16.73;;;204.90;1689.60;;;;;;5133258;27;20043;-55
2022/03/06 11:02:35;;;;;;;32.33;19.52;;;205.10;1664.00;;;;;;5133589;27;20027;-55
2022/03/06 11:05:02;;;;;;;36.85;20.10;;;205.00;1664.00;;;;;;5133352;27;20042;-56
2022/03/06 11:07:29;;;;;;;29.35;18.20;;;205.00;1664.00;;;;;;5133809;27;20094;-55
2022/03/06 11:09:59;;;;;;;30.92;18.33;;;204.90;1689.60;;;;;;5133864;27;20031;-55
2022/03/06 11:12:25;;;;;;;73.63;27.60;;;205.10;1664.00;;;;;;5132067;27;20022;-55
2022/03/06 11:14:52;;;;;;;36.10;19.35;;;205.20;1664.00;;;;;;5133590;27;20053;-55
2022/03/06 11:17:17;;;;;;;73.80;28.23;;;205.30;1638.40;;;;;;5134126;27;20023;-55
2022/03/06 11:19:43;;;;;;;37.40;22.83;;;230.40;1612.80;;;;;;5131753;27;20015;-55
2022/03/06 11:22:34;;;;;;;40.90;21.85;;;230.80;1561.60;;;;;;5133204;27;20043;-55
2022/03/06 11:25:14;;;;;;;35.75;21.25;;;230.70;1510.40;;;;;;5133090;27;20102;-56
2022/03/06 11:28:02;;;;;;;37.55;23.80;;;230.80;1536.00;;;;;;5133961;27;20034;-55
2022/03/06 11:30:28;;;;;;;39.50;24.02;;;230.50;1561.60;;;;;;5131640;27;20033;-55
2022/03/06 11:33:06;;;;;;;32.28;20.48;;;230.60;1536.00;;;;;;5134128;27;20094;-55
2022/03/06 11:35:43;;;;;;;37.08;25.20;;;230.40;1561.60;;;;;;5132835;27;20122;-55
2022/03/06 11:38:15;;;;;;;31.08;20.50;;;205.70;1612.80;;;;;;5133939;27;20030;-56
2022/03/06 11:40:45;;;;;;;32.42;19.83;;;205.60;1612.80;;;;;;5134622;27;20520;-56
2022/03/06 11:43:32;;;;;;;32.88;19.55;;;230.40;1587.20;;;;;;5131628;27;20039;-55
2022/03/06 11:46:05;;;;;;;39.65;24.10;;;230.60;1561.60;;;;;;5134425;27;20084;-55
2022/03/06 11:48:33;;;;;;;39.40;22.77;;;230.80;1536.00;;;;;;5134542;27;20027;-56
2022/03/06 11:51:15;;;;;;;43.55;26.70;;;231.00;1510.40;;;;;;5133252;27;20027;-55
2022/03/06 11:54:00;;;;;;;53.65;27.20;;;231.30;1484.80;;;;;;5134289;27;20019;-55
2022/03/06 11:56:35;;;;;;;55.38;24.63;;;256.50;1433.60;;;;;;5134283;27;20031;-55
2022/03/06 11:59:06;;;;;;;56.95;27.50;;;256.50;1408.00;;;;;;5133080;27;20019;-55
2022/03/06 12:01:44;;;;;;;202.02;88.28;;;281.90;1408.00;;;;;;5128774;27;20111;-55
2022/03/06 12:04:12;;;;;;;132.77;68.72;;;307.20;1331.20;;;;;;5129850;27;20586;-57
2022/03/06 12:06:45;;;;;;;41.13;26.80;;;307.60;1305.60;;;;;;5131850;27;20031;-55
2022/03/06 12:09:29;;;;;;;36.33;21.92;;;308.10;1254.40;;;;;;5129763;27;20081;-56